Time;durP1;ratioP1;P1;durP2;ratioP2;P2;SDS_P1;SDS_P2;PMS_P1;PMS_P2;Temp;Humidity;BMP_temperature;BMP_pressure;BME280_temperature;BME280_humidity;BME280_pressure;Samples;Min_cycle;Max_cycle;Signal;HPM_P1;HPM_P2
2023/12/02 00:00:35;;;;;;;14.70;2.78;;;;;;;10.72;88.61;100649.06;5030322;28;20696;-77
2023/12/02 00:03:04;;;;;;;14.38;2.83;;;;;;;10.62;88.25;100646.22;5024673;28;20136;-77
2023/12/02 00:05:41;;;;;;;15.02;2.47;;;;;;;10.54;89.37;100650.31;5028351;28;20068;-76
2023/12/02 00:08:09;;;;;;;15.13;2.60;;;;;;;10.49;91.00;100646.75;5030112;28;20049;-77
2023/12/02 00:10:38;;;;;;;18.17;2.30;;;;;;;10.45;92.32;100650.94;5029839;28;20048;-76
2023/12/02 00:13:09;;;;;;;12.38;2.10;;;;;;;10.41;94.29;100650.81;5029175;28;20049;-74
2023/12/02 00:15:40;;;;;;;20.45;2.60;;;;;;;10.40;95.76;100656.78;5024258;28;20133;-76
2023/12/02 00:18:09;;;;;;;16.47;3.30;;;;;;;10.31;96.34;100653.94;5022929;28;20049;-75
2023/12/02 00:20:41;;;;;;;9.80;2.65;;;;;;;10.33;98.15;100670.38;5026546;28;20292;-76
2023/12/02 00:23:09;;;;;;;16.90;2.07;;;;;;;10.30;98.63;100666.00;5023117;28;20575;-76
2023/12/02 00:25:38;;;;;;;11.13;2.22;;;;;;;10.26;98.71;100669.28;5029529;28;20065;-75
2023/12/02 00:28:08;;;;;;;10.60;2.50;;;;;;;10.23;99.23;100680.44;5029513;28;20559;-76
2023/12/02 00:30:40;;;;;;;14.30;2.63;;;;;;;10.17;100.00;100682.84;5031748;28;20049;-73
2023/12/02 00:33:09;;;;;;;14.20;2.22;;;;;;;10.10;100.00;100680.91;5028203;28;20128;-77
2023/12/02 00:35:41;;;;;;;12.73;2.67;;;;;;;10.04;100.00;100688.47;5030616;28;20072;-77
2023/12/02 00:38:10;;;;;;;15.35;2.78;;;;;;;10.01;100.00;100688.34;5029691;28;20071;-76
2023/12/02 00:40:39;;;;;;;18.08;2.50;;;;;;;10.01;100.00;100696.13;5030732;28;20041;-77
2023/12/02 00:43:09;;;;;;;23.00;3.65;;;;;;;9.98;100.00;100699.50;5028216;28;20071;-76
2023/12/02 00:45:43;;;;;;;19.90;4.30;;;;;;;9.99;100.00;100703.84;5031219;28;20056;-77
2023/12/02 00:48:12;;;;;;;25.73;4.15;;;;;;;9.98;100.00;100698.63;5032535;28;20046;-77
2023/12/02 00:50:41;;;;;;;23.08;3.28;;;;;;;9.97;100.00;100697.75;5033553;28;20046;-77
2023/12/02 00:53:10;;;;;;;17.90;3.33;;;;;;;9.97;100.00;100696.88;5030386;28;20139;-78
2023/12/02 00:55:38;;;;;;;19.58;3.40;;;;;;;9.94;100.00;100699.34;5036293;28;20128;-80
2023/12/02 00:58:11;;;;;;;18.00;2.42;;;;;;;9.87;100.00;100698.28;5028421;28;21270;-75
2023/12/02 01:00:40;;;;;;;17.83;3.33;;;;;;;9.96;100.00;100700.28;5032614;28;20686;-75
2023/12/02 01:03:09;;;;;;;14.05;2.72;;;;;;;9.99;97.97;100697.81;5030892;28;20045;-74
2023/12/02 01:05:37;;;;;;;17.48;2.97;;;;;;;10.02;97.51;100695.31;5040579;28;20084;-74
2023/12/02 01:08:11;;;;;;;15.65;2.65;;;;;;;10.03;96.00;100684.13;5038752;28;20084;-75
2023/12/02 01:10:40;;;;;;;15.43;3.00;;;;;;;9.99;92.88;100688.34;5028375;28;20593;-77
2023/12/02 01:13:11;;;;;;;10.48;2.00;;;;;;;9.98;93.75;100693.44;5028915;28;20052;-74
2023/12/02 01:15:39;;;;;;;7.90;1.73;;;;;;;9.96;92.87;100695.09;5031033;28;20704;-75
2023/12/02 01:18:08;;;;;;;8.07;1.88;;;;;;;9.90;93.63;100687.19;5028597;28;20057;-77
2023/12/02 01:20:41;;;;;;;14.18;2.42;;;;;;;9.91;93.57;100688.94;5028902;28;20095;-78
2023/12/02 01:23:10;;;;;;;13.60;1.90;;;;;;;9.87;94.52;100682.78;5028323;28;20069;-75
2023/12/02 01:25:41;;;;;;;11.30;2.75;;;;;;;9.81;94.80;100693.81;5024124;28;20042;-76
2023/12/02 01:28:19;;;;;;;17.42;3.88;;;;;;;9.75;95.09;100685.84;5028278;28;20128;-75
2023/12/02 01:30:48;;;;;;;7.95;2.58;;;;;;;9.73;95.77;100682.34;5028482;28;20156;-77
2023/12/02 01:33:17;;;;;;;5.63;1.35;;;;;;;9.71;96.39;100691.78;5026815;28;20041;-74
2023/12/02 01:35:46;;;;;;;9.85;2.38;;;;;;;9.68;98.25;100677.88;5026014;28;20049;-77
2023/12/02 01:38:15;;;;;;;10.52;1.50;;;;;;;9.67;97.78;100691.59;5030961;28;20049;-82
2023/12/02 01:40:45;;;;;;;10.90;2.15;;;;;;;9.64;99.64;100687.22;5030460;28;20071;-85
2023/12/02 01:43:25;;;;;;;14.35;2.00;;;;;;;9.62;99.85;100683.69;5029353;28;20054;-83
2023/12/02 01:45:58;;;;;;;8.35;2.10;;;;;;;9.60;100.00;100680.22;5030537;28;20060;-82
2023/12/02 01:48:28;;;;;;;;;;;;;;;9.58;100.00;100693.06;5025699;28;20521;-83
2023/12/02 01:50:57;;;;;;;12.68;2.33;;;;;;;9.55;100.00;100687.81;5031132;28;19929;-80
2023/12/02 01:53:26;;;;;;;7.68;2.00;;;;;;;9.57;100.00;100690.44;5029482;28;20041;-81
2023/12/02 01:56:00;;;;;;;16.90;2.00;;;;;;;9.59;100.00;100688.78;5030892;28;20089;-81
2023/12/02 01:58:33;;;;;;;16.40;2.80;;;;;;;9.56;100.00;100699.88;5027866;28;20137;-80
2023/12/02 02:01:04;;;;;;;17.52;2.50;;;;;;;9.52;100.00;100692.88;5031120;28;20045;-82
2023/12/02 02:03:34;;;;;;;12.82;2.55;;;;;;;9.52;100.00;100692.00;5024798;28;20052;-79
2023/12/02 02:06:03;;;;;;;13.85;2.88;;;;;;;9.53;100.00;100704.06;5029301;28;20047;-83
2023/12/02 02:08:34;;;;;;;15.68;3.15;;;;;;;9.52;100.00;100704.91;5035109;28;20038;-79
2023/12/02 02:11:03;;;;;;;15.20;2.92;;;;;;;9.47;100.00;100707.34;5025113;28;20033;-80
2023/12/02 02:13:35;;;;;;;10.63;2.70;;;;;;;9.47;100.00;100704.75;5033681;28;20048;-80
2023/12/02 02:16:05;;;;;;;12.90;3.25;;;;;;;9.43;100.00;100703.75;5037074;28;20041;-83
2023/12/02 02:18:38;;;;;;;7.50;1.75;;;;;;;9.45;100.00;100714.16;5034037;28;20045;-85
2023/12/02 02:21:07;;;;;;;15.80;2.95;;;;;;;9.44;100.00;100705.53;5032542;28;20041;-81
2023/12/02 02:23:39;;;;;;;18.50;2.75;;;;;;;9.43;100.00;100701.19;5030672;28;20052;-81
2023/12/02 02:26:08;;;;;;;13.35;2.65;;;;;;;9.43;100.00;100703.75;5032398;28;20049;-83
2023/12/02 02:28:37;;;;;;;14.55;2.28;;;;;;;9.43;100.00;100702.91;5031631;28;20053;-84
2023/12/02 02:31:06;;;;;;;10.98;2.30;;;;;;;9.39;100.00;100693.28;5027451;28;20060;-86
2023/12/02 02:33:35;;;;;;;20.10;2.85;;;;;;;9.38;100.00;100689.81;5027138;28;20511;-85
2023/12/02 02:36:08;;;;;;;12.85;2.90;;;;;;;9.34;100.00;100702.59;5032152;28;20426;-84
2023/12/02 02:38:39;;;;;;;17.67;3.75;;;;;;;9.31;100.00;100703.38;5031999;28;20069;-84
2023/12/02 02:41:09;;;;;;;12.32;2.42;;;;;;;9.24;100.00;100696.25;5030091;28;20068;-80
2023/12/02 02:43:38;;;;;;;14.90;2.92;;;;;;;9.21;100.00;100685.81;5033595;28;20038;-83
2023/12/02 02:46:08;;;;;;;17.80;2.97;;;;;;;9.16;100.00;100684.75;5035726;28;20056;-86
2023/12/02 02:48:40;;;;;;;22.65;3.38;;;;;;;9.12;100.00;100681.22;5031254;28;20183;-81
2023/12/02 02:51:17;;;;;;;14.63;2.83;;;;;;;9.09;100.00;100680.22;5035780;28;20045;-80
2023/12/02 02:53:56;;;;;;;12.80;2.50;;;;;;;9.06;100.00;100673.25;5032174;28;20050;-82
2023/12/02 02:56:34;;;;;;;15.68;2.75;;;;;;;9.04;100.00;100680.06;5026088;28;20731;-83
2023/12/02 02:59:10;;;;;;;10.98;2.35;;;;;;;8.99;100.00;100672.16;5029116;28;20092;-81
2023/12/02 03:01:40;;;;;;;14.40;2.60;;;;;;;9.00;100.00;100675.63;5027805;28;20057;-82
2023/12/02 03:04:09;;;;;;;15.13;2.30;;;;;;;8.95;100.00;100667.72;5025870;28;20068;-81
2023/12/02 03:06:38;;;;;;;11.98;2.28;;;;;;;9.03;100.00;100660.25;5030498;28;20071;-81
2023/12/02 03:09:11;;;;;;;12.88;2.78;;;;;;;9.05;100.00;100663.78;5027594;28;20328;-82
2023/12/02 03:11:40;;;;;;;12.68;3.03;;;;;;;9.05;100.00;100678.34;5027728;28;20112;-85
2023/12/02 03:14:09;;;;;;;11.52;2.80;;;;;;;9.06;100.00;100669.81;5004190;28;20172;-82
2023/12/02 03:16:37;;;;;;;16.45;2.70;;;;;;;9.06;100.00;100659.47;5027243;28;20057;-83
2023/12/02 03:19:06;;;;;;;18.08;3.45;;;;;;;8.98;100.00;100666.97;5022886;28;20497;-82
2023/12/02 03:21:38;;;;;;;13.48;2.53;;;;;;;8.97;100.00;100676.38;5031305;28;20060;-84
2023/12/02 03:24:12;;;;;;;13.02;2.63;;;;;;;8.92;100.00;100671.91;5026276;28;20049;-87
2023/12/02 03:26:40;;;;;;;15.20;3.10;;;;;;;8.91;100.00;100686.53;5030038;28;20073;-84
2023/12/02 03:29:09;;;;;;;14.65;3.08;;;;;;;8.86;100.00;100698.34;5036485;28;20408;-86
2023/12/02 03:31:43;;;;;;;15.35;2.63;;;;;;;8.90;100.00;100707.97;5037072;28;20125;-87
2023/12/02 03:34:11;;;;;;;22.80;4.35;;;;;;;8.86;100.00;100710.38;5033676;28;20049;-86
2023/12/02 03:36:42;;;;;;;12.93;3.03;;;;;;;8.84;100.00;100705.16;5038659;28;20519;-85
2023/12/02 03:39:14;;;;;;;20.08;3.45;;;;;;;8.84;100.00;100710.31;5046276;28;20033;-85
2023/12/02 03:41:43;;;;;;;14.43;2.55;;;;;;;8.84;100.00;100712.91;5048444;28;20038;-85
2023/12/02 03:44:12;;;;;;;17.17;3.63;;;;;;;8.84;100.00;100718.06;5043893;28;20045;-83
2023/12/02 03:46:41;;;;;;;12.23;2.95;;;;;;;8.90;100.00;100718.28;5030591;28;20065;-84
2023/12/02 03:49:10;;;;;;;18.15;3.47;;;;;;;8.94;100.00;100707.25;5033392;28;20060;-77
2023/12/02 03:51:39;;;;;;;14.43;2.70;;;;;;;8.97;100.00;100698.75;5019388;28;20124;-76
2023/12/02 03:54:11;;;;;;;19.05;3.40;;;;;;;8.97;100.00;100707.38;5023280;28;20046;-76
2023/12/02 03:56:42;;;;;;;10.55;2.15;;;;;;;8.97;100.00;100716.81;5018825;28;20045;-77
2023/12/02 03:59:11;;;;;;;17.15;3.88;;;;;;;8.92;100.00;100698.59;5024895;28;20045;-75
2023/12/02 04:01:41;;;;;;;18.17;3.15;;;;;;;8.90;100.00;100704.53;5022825;28;20131;-77
2023/12/02 04:04:11;;;;;;;21.92;3.35;;;;;;;8.81;100.00;100699.91;5021699;28;20053;-76
2023/12/02 04:06:41;;;;;;;23.57;3.27;;;;;;;8.79;100.00;100696.38;5015477;28;20046;-75
2023/12/02 04:09:10;;;;;;;12.20;3.13;;;;;;;8.80;100.00;100704.19;5024607;28;20491;-76
2023/12/02 04:11:41;;;;;;;16.25;3.17;;;;;;;8.80;100.00;100693.88;5025345;28;20065;-74
2023/12/02 04:14:10;;;;;;;16.17;3.22;;;;;;;8.82;100.00;100681.03;5020298;28;20136;-76
2023/12/02 04:16:42;;;;;;;16.80;3.17;;;;;;;8.83;100.00;100672.47;5022200;28;20045;-77
2023/12/02 04:19:11;;;;;;;16.10;2.23;;;;;;;8.77;100.00;100670.56;5021793;28;20065;-76
2023/12/02 04:21:43;;;;;;;14.90;2.92;;;;;;;8.74;100.00;100672.13;5023202;28;20051;-77
2023/12/02 04:24:14;;;;;;;14.02;2.97;;;;;;;8.68;100.00;100670.22;5022041;28;20050;-77
2023/12/02 04:26:51;;;;;;;15.55;2.53;;;;;;;8.67;100.00;100680.50;5018102;28;20522;-78
2023/12/02 04:29:20;;;;;;;9.68;2.30;;;;;;;8.70;100.00;100690.91;5021361;28;20503;-76
2023/12/02 04:31:49;;;;;;;5.32;2.10;;;;;;;8.70;100.00;100680.59;5023297;28;20045;-73
2023/12/02 04:34:17;;;;;;;9.77;2.35;;;;;;;8.69;100.00;100684.00;5022816;28;20049;-75
2023/12/02 04:36:47;;;;;;;13.38;2.38;;;;;;;8.65;100.00;100682.13;5027419;28;20060;-75
2023/12/02 04:39:18;;;;;;;13.50;3.50;;;;;;;8.76;100.00;100689.44;5027506;28;20052;-74
2023/12/02 04:41:48;;;;;;;6.03;2.03;;;;;;;8.73;100.00;100675.56;5028035;28;20140;-74
2023/12/02 04:44:17;;;;;;;15.10;3.20;;;;;;;8.63;100.00;100668.28;5027577;28;20092;-76
2023/12/02 04:46:46;;;;;;;23.73;3.13;;;;;;;8.52;100.00;100657.59;5023002;28;20050;-74
2023/12/02 04:49:15;;;;;;;8.38;2.10;;;;;;;8.52;100.00;100663.66;5028549;28;20064;-76
2023/12/02 04:51:43;;;;;;;11.05;2.25;;;;;;;8.51;100.00;100663.56;5024078;28;20037;-77
2023/12/02 04:54:12;;;;;;;7.93;2.10;;;;;;;8.46;100.00;100667.69;5026673;28;20381;-76
2023/12/02 04:56:44;;;;;;;12.07;1.70;;;;;;;8.46;100.00;100665.13;5022324;28;20056;-76
2023/12/02 04:59:14;;;;;;;9.15;1.80;;;;;;;8.42;100.00;100658.97;5028667;28;20132;-74
2023/12/02 05:01:45;;;;;;;6.38;1.83;;;;;;;8.37;100.00;100663.03;5024164;28;20076;-75
2023/12/02 05:04:13;;;;;;;8.13;2.10;;;;;;;8.30;100.00;100661.94;5020447;28;20708;-79
2023/12/02 05:06:42;;;;;;;7.28;1.80;;;;;;;8.25;100.00;100658.31;5025142;28;20049;-77
2023/12/02 05:09:11;;;;;;;8.18;2.17;;;;;;;8.17;100.00;100652.84;5028092;28;20111;-74
2023/12/02 05:11:40;;;;;;;9.52;2.28;;;;;;;8.19;100.00;100656.38;5023741;28;20056;-75
2023/12/02 05:14:08;;;;;;;7.82;1.67;;;;;;;8.17;100.00;100668.31;5023134;28;20049;-75
2023/12/02 05:16:43;;;;;;;8.85;2.10;;;;;;;8.21;100.00;100666.75;5024488;28;20050;-77
2023/12/02 05:19:12;;;;;;;7.53;2.03;;;;;;;8.23;100.00;100670.25;5024954;28;20049;-75
2023/12/02 05:21:41;;;;;;;9.20;1.90;;;;;;;8.22;100.00;100654.72;5026421;28;20041;-76
2023/12/02 05:24:09;;;;;;;9.40;2.03;;;;;;;8.18;100.00;100649.47;5022093;28;20053;-75
2023/12/02 05:26:38;;;;;;;12.32;3.15;;;;;;;8.20;100.00;100649.53;5020636;28;20053;-74
2023/12/02 05:29:07;;;;;;;9.15;1.65;;;;;;;8.24;100.00;100653.09;5021681;28;20053;-75
2023/12/02 05:31:35;;;;;;;9.63;1.42;;;;;;;8.23;100.00;100649.63;5023486;28;20054;-76
2023/12/02 05:34:06;;;;;;;8.05;2.13;;;;;;;8.25;100.00;100654.88;5021637;28;20047;-75
2023/12/02 05:36:35;;;;;;;11.90;1.75;;;;;;;8.25;100.00;100645.44;5026742;28;20053;-76
2023/12/02 05:39:04;;;;;;;11.82;1.88;;;;;;;8.27;100.00;100642.88;5030072;28;20115;-76
2023/12/02 05:41:34;;;;;;;6.15;2.28;;;;;;;8.27;100.00;100655.78;5027801;28;20046;-75
2023/12/02 05:44:02;;;;;;;10.90;1.88;;;;;;;8.26;100.00;100662.63;5020240;28;20075;-75
2023/12/02 05:46:36;;;;;;;6.80;1.70;;;;;;;8.26;100.00;100641.16;5026649;28;20074;-77
2023/12/02 05:49:07;;;;;;;10.38;2.25;;;;;;;8.27;100.00;100648.03;5024917;28;20057;-75
2023/12/02 05:51:39;;;;;;;9.15;1.95;;;;;;;8.19;100.00;100640.03;5022529;28;20048;-77
2023/12/02 05:54:09;;;;;;;6.63;1.85;;;;;;;8.27;100.00;100637.72;5028234;28;20049;-76
2023/12/02 05:56:41;;;;;;;9.15;2.05;;;;;;;8.30;100.00;100632.72;5023823;28;20060;-75
2023/12/02 05:59:10;;;;;;;6.63;1.60;;;;;;;8.28;100.00;100630.06;5024405;28;20057;-76
2023/12/02 06:01:39;;;;;;;10.27;2.10;;;;;;;8.32;100.00;100628.50;5025964;28;20061;-74
2023/12/02 06:04:10;;;;;;;10.68;1.83;;;;;;;8.31;100.00;100622.44;5029044;28;20073;-77
2023/12/02 06:06:41;;;;;;;6.60;1.60;;;;;;;8.37;100.00;100642.41;5024373;28;20053;-75
2023/12/02 06:09:10;;;;;;;5.00;1.92;;;;;;;8.37;100.00;100624.38;5028825;28;20103;-80
2023/12/02 06:11:39;;;;;;;4.82;1.48;;;;;;;8.34;100.00;100608.81;5026634;28;20076;-76
2023/12/02 06:14:09;;;;;;;6.75;1.77;;;;;;;8.34;100.00;100581.31;5019789;28;20050;-77
2023/12/02 06:16:37;;;;;;;9.32;1.90;;;;;;;8.34;100.00;100562.41;5026882;28;20056;-75
2023/12/02 06:19:06;;;;;;;10.98;1.92;;;;;;;8.34;100.00;100563.25;5030283;28;20050;-76
2023/12/02 06:21:37;;;;;;;10.63;2.03;;;;;;;8.32;100.00;100561.47;5029258;28;20041;-75
2023/12/02 06:24:07;;;;;;;11.05;1.70;;;;;;;8.24;100.00;100542.25;5031646;28;20049;-74
2023/12/02 06:26:38;;;;;;;6.13;1.33;;;;;;;8.11;100.00;100540.97;5024365;28;20041;-78
2023/12/02 06:29:07;;;;;;;6.82;1.17;;;;;;;8.15;100.00;100537.66;5022801;28;20768;-77
2023/12/02 06:31:36;;;;;;;3.38;1.17;;;;;;;8.11;100.00;100521.22;5022557;28;20106;-76
2023/12/02 06:34:05;;;;;;;4.40;1.25;;;;;;;8.11;100.00;100528.94;5027315;28;20076;-76
2023/12/02 06:36:35;;;;;;;9.38;1.90;;;;;;;8.09;100.00;100517.69;5022478;28;20045;-78
2023/12/02 06:39:04;;;;;;;11.60;1.70;;;;;;;8.06;100.00;100504.69;5030874;28;20414;-77
2023/12/02 06:41:33;;;;;;;7.47;1.83;;;;;;;8.08;100.00;100505.63;5026331;28;20468;-77
2023/12/02 06:44:02;;;;;;;12.40;2.30;;;;;;;8.09;100.00;100512.56;5023715;28;20046;-77
2023/12/02 06:46:34;;;;;;;9.40;2.17;;;;;;;8.06;100.00;100494.38;5025407;28;20045;-78
2023/12/02 06:49:03;;;;;;;6.10;1.97;;;;;;;8.09;100.00;100497.09;5025799;28;20072;-75
2023/12/02 06:51:33;;;;;;;6.35;1.50;;;;;;;8.10;100.00;100511.72;5027894;28;20609;-77
2023/12/02 06:54:05;;;;;;;10.40;1.48;;;;;;;8.05;100.00;100527.84;5028694;28;20053;-76
2023/12/02 06:56:34;;;;;;;10.07;2.07;;;;;;;8.10;100.00;100541.75;5025043;28;20504;-77
2023/12/02 06:59:02;;;;;;;6.30;1.60;;;;;;;8.13;100.00;100553.06;5019146;28;20621;-77
2023/12/02 07:01:33;;;;;;;8.35;1.80;;;;;;;8.17;100.00;100554.91;5026715;28;20052;-76
2023/12/02 07:04:03;;;;;;;7.60;2.10;;;;;;;8.20;100.00;100546.44;5025675;28;20053;-76
2023/12/02 07:06:35;;;;;;;8.98;1.88;;;;;;;8.22;100.00;100526.72;5019853;28;20045;-76
2023/12/02 07:09:08;;;;;;;9.15;2.03;;;;;;;8.24;100.00;100526.78;5020650;28;20061;-77
2023/12/02 07:11:36;;;;;;;;;;;;;;;8.23;100.00;100517.31;5025923;28;20053;-73
2023/12/02 07:14:04;;;;;;;8.68;1.83;;;;;;;8.25;100.00;100519.13;5023822;28;20544;-74
2023/12/02 07:16:33;;;;;;;8.23;1.83;;;;;;;8.25;100.00;100520.84;5025413;28;20056;-76
2023/12/02 07:19:02;;;;;;;11.38;1.75;;;;;;;8.27;100.00;100514.00;5025701;28;20235;-76
2023/12/02 07:21:32;;;;;;;7.53;2.03;;;;;;;8.25;100.00;100495.94;5027980;28;20057;-76
2023/12/02 07:24:00;;;;;;;7.10;2.22;;;;;;;8.22;100.00;100490.63;5025495;28;20731;-77
2023/12/02 07:26:31;;;;;;;5.88;1.90;;;;;;;8.30;100.00;100514.13;5021543;28;20057;-77
2023/12/02 07:29:00;;;;;;;10.50;2.80;;;;;;;8.30;100.00;100507.25;5024055;28;20741;-74
2023/12/02 07:31:29;;;;;;;11.55;2.60;;;;;;;8.34;100.00;100501.41;5025240;28;20046;-76
2023/12/02 07:33:58;;;;;;;11.80;2.55;;;;;;;8.34;100.00;100498.81;5024198;28;20530;-76
2023/12/02 07:36:27;;;;;;;13.57;2.53;;;;;;;8.38;100.00;100492.03;5020804;28;20060;-75
2023/12/02 07:38:55;;;;;;;13.05;2.38;;;;;;;8.39;100.00;100486.09;5026974;28;20050;-75
2023/12/02 07:41:24;;;;;;;10.10;1.90;;;;;;;8.38;100.00;100474.00;5027543;28;20045;-77
2023/12/02 07:43:54;;;;;;;14.95;3.20;;;;;;;8.40;100.00;100480.13;5019425;28;20053;-75
2023/12/02 07:46:23;;;;;;;8.45;2.00;;;;;;;8.46;100.00;100480.34;5025848;28;20129;-76
2023/12/02 07:48:52;;;;;;;6.90;2.17;;;;;;;8.48;100.00;100465.81;5020671;28;20049;-76
2023/12/02 07:51:21;;;;;;;13.60;2.40;;;;;;;8.47;100.00;100456.28;5026441;28;20045;-76
2023/12/02 07:53:50;;;;;;;10.23;1.70;;;;;;;8.47;100.00;100445.97;5023046;28;20113;-75
2023/12/02 07:56:19;;;;;;;13.02;2.60;;;;;;;8.42;100.00;100432.06;5021455;28;20058;-75
2023/12/02 07:58:48;;;;;;;12.05;2.50;;;;;;;8.46;100.00;100433.94;5023069;28;20049;-77
2023/12/02 08:01:19;;;;;;;10.98;2.75;;;;;;;8.45;100.00;100433.88;5028807;28;20053;-78
2023/12/02 08:03:49;;;;;;;17.90;2.92;;;;;;;8.48;100.00;100424.53;5021009;28;20133;-75
2023/12/02 08:06:18;;;;;;;14.82;3.03;;;;;;;8.50;100.00;100415.16;5023625;28;20096;-77
2023/12/02 08:08:47;;;;;;;13.05;2.80;;;;;;;8.47;100.00;100404.72;5024918;28;20046;-79
2023/12/02 08:11:16;;;;;;;11.30;2.67;;;;;;;8.51;100.00;100404.00;5028144;28;20459;-79
2023/12/02 08:13:52;;;;;;;4.85;1.80;;;;;;;8.53;100.00;100396.31;5027656;28;20049;-77
2023/12/02 08:16:23;;;;;;;15.40;3.67;;;;;;;8.48;100.00;100375.56;5024479;28;20073;-77
2023/12/02 08:18:52;;;;;;;13.43;2.70;;;;;;;8.49;100.00;100382.44;5024505;28;20053;-74
2023/12/02 08:21:20;;;;;;;12.55;2.75;;;;;;;8.51;100.00;100380.78;5026940;28;20455;-78
2023/12/02 08:23:49;;;;;;;16.02;3.78;;;;;;;8.59;100.00;100388.78;5026557;28;20088;-76
2023/12/02 08:26:18;;;;;;;10.85;2.30;;;;;;;8.57;100.00;100388.75;5023459;28;20056;-75
2023/12/02 08:28:48;;;;;;;12.25;2.72;;;;;;;8.62;100.00;100388.00;5022147;28;20072;-76
2023/12/02 08:31:18;;;;;;;10.02;2.50;;;;;;;8.62;100.00;100398.31;5031075;28;20050;-75
2023/12/02 08:33:48;;;;;;;14.18;2.88;;;;;;;8.67;100.00;100396.75;5027871;28;20041;-77
2023/12/02 08:36:17;;;;;;;11.60;3.10;;;;;;;8.74;100.00;100403.84;5030714;28;20171;-75
2023/12/02 08:38:46;;;;;;;12.55;2.95;;;;;;;8.78;100.00;100385.06;5026256;28;20065;-75
2023/12/02 08:41:15;;;;;;;12.80;2.88;;;;;;;8.80;100.00;100378.25;5024774;28;20057;-76
2023/12/02 08:43:44;;;;;;;19.30;3.15;;;;;;;8.84;100.00;100358.56;5026147;28;20077;-75
2023/12/02 08:46:16;;;;;;;15.23;3.05;;;;;;;8.86;100.00;100347.47;5030346;28;20053;-76
2023/12/02 08:48:45;;;;;;;12.80;2.87;;;;;;;8.85;100.00;100335.41;5030085;28;20045;-76
2023/12/02 08:51:16;;;;;;;18.73;3.22;;;;;;;8.87;100.00;100328.59;5031991;28;20134;-75
2023/12/02 08:53:44;;;;;;;20.25;4.05;;;;;;;8.88;100.00;100319.16;5028135;28;20488;-77
2023/12/02 08:56:13;;;;;;;12.32;2.53;;;;;;;8.88;100.00;100326.88;5027737;28;20033;-77
2023/12/02 08:58:45;;;;;;;13.23;3.90;;;;;;;8.86;100.00;100310.47;5031880;28;20066;-76
2023/12/02 09:01:14;;;;;;;12.10;3.15;;;;;;;8.86;100.00;100293.28;5030827;28;20053;-74
2023/12/02 09:03:42;;;;;;;17.48;3.53;;;;;;;8.87;100.00;100295.06;5024590;28;20080;-73
2023/12/02 09:06:12;;;;;;;19.92;4.15;;;;;;;8.85;100.00;100293.25;5026631;28;20168;-77
2023/12/02 09:08:43;;;;;;;9.55;2.65;;;;;;;8.84;100.00;100291.50;5023531;28;20045;-75
2023/12/02 09:11:14;;;;;;;12.38;3.50;;;;;;;8.88;100.00;100268.41;5027776;28;20080;-77
2023/12/02 09:13:46;;;;;;;10.93;3.17;;;;;;;8.91;100.00;100265.94;5027377;28;20084;-74
2023/12/02 09:16:20;;;;;;;16.10;3.50;;;;;;;8.92;100.00;100277.13;5023156;28;20073;-75
2023/12/02 09:18:49;;;;;;;13.85;3.85;;;;;;;8.91;100.00;100268.50;5022336;28;20045;-75
2023/12/02 09:21:44;;;;;;;8.32;2.53;;;;;;;8.94;100.00;100258.28;5022996;28;20243;-76
2023/12/02 09:24:37;;;;;;;15.70;3.17;;;;;;;8.96;100.00;100255.75;5027246;28;20053;-78
2023/12/02 09:27:07;;;;;;;;;;;;;;;8.98;100.00;100269.56;5023209;28;20061;-74
2023/12/02 09:29:37;;;;;;;21.02;3.25;;;;;;;9.01;100.00;100260.19;5027884;28;19951;-76
2023/12/02 09:32:27;;;;;;;16.92;3.55;;;;;;;9.02;100.00;100266.22;5028472;28;20486;-76
2023/12/02 09:35:00;;;;;;;18.50;3.65;;;;;;;9.06;100.00;100256.88;5025235;28;20942;-76
2023/12/02 09:38:04;;;;;;;17.08;3.47;;;;;;;9.01;100.00;100260.19;5022577;28;20089;-74
2023/12/02 09:41:06;;;;;;;12.13;2.97;;;;;;;9.06;100.00;100256.88;5024261;28;20059;-74
2023/12/02 09:43:43;;;;;;;10.52;3.00;;;;;;;9.06;100.00;100254.28;5027221;28;20042;-74
2023/12/02 09:46:26;;;;;;;9.95;3.53;;;;;;;9.14;100.00;100247.59;5027449;28;20123;-74
2023/12/02 09:49:27;;;;;;;9.70;2.55;;;;;;;9.14;100.00;100245.94;5026463;28;20136;-74
2023/12/02 09:52:24;;;;;;;13.25;3.60;;;;;;;9.13;100.00;100236.41;5026954;28;20057;-76
2023/12/02 09:55:00;;;;;;;6.30;3.17;;;;;;;9.12;100.00;100229.53;5026986;28;20427;-75
2023/12/02 09:57:42;;;;;;;12.45;3.03;;;;;;;9.15;100.00;100226.16;5026576;28;20053;-77
2023/12/02 10:00:25;;;;;;;12.73;2.70;;;;;;;9.04;100.00;100224.97;5026726;28;20064;-77
2023/12/02 10:03:37;;;;;;;13.63;4.03;;;;;;;9.16;100.00;100226.19;5019298;28;20527;-76
2023/12/02 10:06:17;;;;;;;13.25;2.78;;;;;;;9.18;100.00;100221.06;5023393;28;20061;-74
2023/12/02 10:08:59;;;;;;;14.63;2.88;;;;;;;9.20;100.00;100230.56;5017645;28;20049;-74
2023/12/02 10:11:37;;;;;;;13.75;2.70;;;;;;;9.19;100.00;100213.34;5021281;28;20541;-77
2023/12/02 10:14:14;;;;;;;14.20;3.38;;;;;;;9.23;100.00;100238.44;5024004;28;20133;-76
2023/12/02 10:16:47;;;;;;;11.52;1.77;;;;;;;9.20;100.00;100229.72;5024479;28;20041;-78
2023/12/02 10:19:25;;;;;;;7.95;2.17;;;;;;;9.21;100.00;100210.81;5024710;28;20084;-75
2023/12/02 10:21:59;;;;;;;12.75;2.58;;;;;;;9.28;100.00;100224.75;5016190;28;20053;-75
2023/12/02 10:24:40;;;;;;;4.25;1.92;;;;;;;9.27;100.00;100217.84;5024501;28;20080;-80
2023/12/02 10:27:14;;;;;;;10.48;2.35;;;;;;;9.25;100.00;100191.97;5017245;28;20073;-76
2023/12/02 10:29:56;;;;;;;7.05;1.88;;;;;;;9.28;100.00;100205.00;5020374;28;20236;-76
2023/12/02 10:32:35;;;;;;;6.22;1.95;;;;;;;9.32;100.00;100191.31;5026463;28;20133;-77
2023/12/02 10:35:12;;;;;;;4.85;1.95;;;;;;;9.32;100.00;100188.75;5028738;28;20049;-75
2023/12/02 10:37:43;;;;;;;12.07;2.25;;;;;;;9.37;100.00;100192.31;5025119;28;20057;-73
2023/12/02 10:40:15;;;;;;;18.95;2.25;;;;;;;9.39;100.00;100177.72;5023555;28;20524;-74
2023/12/02 10:42:53;;;;;;;9.88;2.42;;;;;;;9.35;100.00;100165.56;5022994;28;20045;-75
2023/12/02 10:45:27;;;;;;;12.82;2.53;;;;;;;9.37;100.00;100163.91;5017334;28;20120;-77
2023/12/02 10:47:56;;;;;;;14.25;2.03;;;;;;;9.40;100.00;100163.97;5018458;28;20095;-77
2023/12/02 10:50:25;;;;;;;9.43;2.10;;;;;;;9.41;100.00;100152.81;5025603;28;20115;-77
2023/12/02 10:53:02;;;;;;;12.18;2.67;;;;;;;9.39;100.00;100132.94;5022257;28;20104;-77
2023/12/02 10:55:40;;;;;;;8.32;2.33;;;;;;;9.38;100.00;100128.63;5023606;28;20092;-76
2023/12/02 10:58:10;;;;;;;9.32;2.25;;;;;;;9.32;100.00;100115.56;5021312;28;20054;-77
2023/12/02 11:00:45;;;;;;;9.27;2.70;;;;;;;9.36;100.00;100100.19;5025636;28;20123;-76
2023/12/02 11:03:23;;;;;;;8.27;3.33;;;;;;;9.34;100.00;100119.91;5020639;28;20503;-79
2023/12/02 11:06:06;;;;;;;9.43;2.10;;;;;;;9.35;100.00;100113.06;5024906;28;20120;-77
2023/12/02 11:08:50;;;;;;;7.93;2.45;;;;;;;9.34;100.00;100100.97;5023454;28;20051;-76
2023/12/02 11:11:31;;;;;;;6.53;2.60;;;;;;;9.37;100.00;100083.88;5019685;28;20358;-77
2023/12/02 11:14:03;;;;;;;14.05;2.95;;;;;;;9.31;100.00;100069.94;5022040;28;20076;-78
2023/12/02 11:16:43;;;;;;;5.25;1.50;;;;;;;9.28;100.00;100072.44;5025116;28;20698;-76
2023/12/02 11:19:36;;;;;;;17.85;2.45;;;;;;;9.17;100.00;100051.53;5018202;28;20049;-77
2023/12/02 11:22:27;;;;;;;12.07;2.10;;;;;;;9.11;100.00;100054.84;5021750;28;20056;-74
2023/12/02 11:25:09;;;;;;;9.55;2.60;;;;;;;9.12;100.00;100042.84;5026046;28;20057;-77
2023/12/02 11:27:51;;;;;;;6.63;1.98;;;;;;;9.13;100.00;100049.72;5029590;28;20068;-75
2023/12/02 11:30:34;;;;;;;6.28;2.00;;;;;;;9.12;100.00;100045.41;5027846;28;20046;-75
2023/12/02 11:33:19;;;;;;;4.88;2.30;;;;;;;9.11;100.00;100043.66;5026880;28;20122;-77
2023/12/02 11:35:57;;;;;;;13.07;2.40;;;;;;;9.13;100.00;100041.97;5026116;28;20062;-76
2023/12/02 11:38:32;;;;;;;8.55;3.03;;;;;;;9.22;100.00;100042.19;5024908;28;20056;-75
2023/12/02 11:41:15;;;;;;;8.25;2.25;;;;;;;9.20;100.00;100016.34;5024162;28;20519;-77
2023/12/02 11:43:57;;;;;;;11.02;2.92;;;;;;;9.17;100.00;100023.16;5024243;28;20049;-75